Weather at Hahn Heliport

Public forecast

Using degrees Fahrenheit for public forecast. Weather courtesy of forecast.io.

Closest aviation weather report (METAR) to Hahn Heliport

Closest report is Lehigh Valley International Airport, 10.2 nm (18.9 km) SSW. Retrieved 2021/06/13 16:51 UTC (48 minutes ago):

KABE 131651Z 22005KT 10SM SCT042 BKN050 OVC065 22/16 A2991 RMK AO2 SLP128 T02220156

Closest aviation forecast (TAF) to Hahn Heliport

Closest forecast is Lehigh Valley International Airport, 10.2 nm (18.9 km) SSW. Retrieved 2021/06/13 12:33 UTC (5 hours ago):

TAF KABE 131130Z 1312/1412 VRB03KT P6SM OVC035 TEMPO 1312/1313 -SHRA OVC025 FM131900 19004KT P6SM BKN040 FM140100 18004KT P6SM -SHRA OVC025 FM140700 15004KT 4SM -SHRA BR OVC015